sensor_id;sensor_type;location;lat;lon;timestamp;P1;durP1;ratioP1;P2;durP2;ratioP2
44822;SDS011;51097;51.984;5.650;2023-11-21T00:00:09;26.25;;;14.10;;
44822;SDS011;51097;51.984;5.650;2023-11-21T00:02:37;21.55;;;13.32;;
44822;SDS011;51097;51.984;5.650;2023-11-21T00:05:05;24.25;;;14.75;;
44822;SDS011;51097;51.984;5.650;2023-11-21T00:07:34;24.93;;;15.07;;
44822;SDS011;51097;51.984;5.650;2023-11-21T00:10:01;23.58;;;13.82;;
44822;SDS011;51097;51.984;5.650;2023-11-21T00:12:27;21.70;;;13.35;;
44822;SDS011;51097;51.984;5.650;2023-11-21T00:14:54;22.95;;;14.02;;
44822;SDS011;51097;51.984;5.650;2023-11-21T00:17:20;27.77;;;15.00;;
44822;SDS011;51097;51.984;5.650;2023-11-21T00:19:45;26.50;;;16.33;;
44822;SDS011;51097;51.984;5.650;2023-11-21T00:22:11;24.73;;;14.02;;
44822;SDS011;51097;51.984;5.650;2023-11-21T00:24:36;29.23;;;15.38;;
44822;SDS011;51097;51.984;5.650;2023-11-21T00:27:02;23.98;;;14.38;;
44822;SDS011;51097;51.984;5.650;2023-11-21T00:29:28;24.05;;;14.40;;
44822;SDS011;51097;51.984;5.650;2023-11-21T00:31:54;29.33;;;15.07;;
44822;SDS011;51097;51.984;5.650;2023-11-21T00:34:19;20.65;;;14.32;;
44822;SDS011;51097;51.984;5.650;2023-11-21T00:36:45;25.75;;;14.20;;
44822;SDS011;51097;51.984;5.650;2023-11-21T00:39:11;23.80;;;13.07;;
44822;SDS011;51097;51.984;5.650;2023-11-21T00:41:36;22.95;;;14.70;;
44822;SDS011;51097;51.984;5.650;2023-11-21T00:44:02;29.58;;;16.83;;
44822;SDS011;51097;51.984;5.650;2023-11-21T00:46:28;28.45;;;15.35;;
44822;SDS011;51097;51.984;5.650;2023-11-21T00:48:54;22.63;;;13.35;;
44822;SDS011;51097;51.984;5.650;2023-11-21T00:51:20;24.30;;;14.23;;
44822;SDS011;51097;51.984;5.650;2023-11-21T00:53:47;22.38;;;13.25;;
44822;SDS011;51097;51.984;5.650;2023-11-21T00:56:12;25.08;;;14.40;;
44822;SDS011;51097;51.984;5.650;2023-11-21T00:58:39;24.83;;;14.95;;
44822;SDS011;51097;51.984;5.650;2023-11-21T01:01:08;26.27;;;14.07;;
44822;SDS011;51097;51.984;5.650;2023-11-21T01:03:34;21.30;;;11.85;;
44822;SDS011;51097;51.984;5.650;2023-11-21T01:06:00;23.25;;;13.75;;
44822;SDS011;51097;51.984;5.650;2023-11-21T01:08:25;22.27;;;12.75;;
44822;SDS011;51097;51.984;5.650;2023-11-21T01:10:51;26.05;;;14.77;;
44822;SDS011;51097;51.984;5.650;2023-11-21T01:13:17;22.95;;;14.23;;
44822;SDS011;51097;51.984;5.650;2023-11-21T01:15:43;26.55;;;14.82;;
44822;SDS011;51097;51.984;5.650;2023-11-21T01:18:09;22.80;;;14.90;;
44822;SDS011;51097;51.984;5.650;2023-11-21T01:20:34;23.15;;;13.73;;
44822;SDS011;51097;51.984;5.650;2023-11-21T01:23:00;27.00;;;14.48;;
44822;SDS011;51097;51.984;5.650;2023-11-21T01:25:25;27.20;;;15.55;;
44822;SDS011;51097;51.984;5.650;2023-11-21T01:27:51;24.88;;;14.93;;
44822;SDS011;51097;51.984;5.650;2023-11-21T01:30:17;27.92;;;14.27;;
44822;SDS011;51097;51.984;5.650;2023-11-21T01:32:43;26.90;;;14.13;;
44822;SDS011;51097;51.984;5.650;2023-11-21T01:35:09;30.45;;;15.25;;
44822;SDS011;51097;51.984;5.650;2023-11-21T01:37:35;32.70;;;17.10;;
44822;SDS011;51097;51.984;5.650;2023-11-21T01:40:04;51.28;;;19.05;;
44822;SDS011;51097;51.984;5.650;2023-11-21T01:42:34;33.20;;;17.45;;
44822;SDS011;51097;51.984;5.650;2023-11-21T01:44:59;35.25;;;14.85;;
44822;SDS011;51097;51.984;5.650;2023-11-21T01:47:29;33.97;;;15.45;;
44822;SDS011;51097;51.984;5.650;2023-11-21T01:49:59;34.47;;;16.90;;
44822;SDS011;51097;51.984;5.650;2023-11-21T01:52:25;30.45;;;16.17;;
44822;SDS011;51097;51.984;5.650;2023-11-21T01:54:52;30.42;;;17.50;;
44822;SDS011;51097;51.984;5.650;2023-11-21T01:57:19;32.60;;;18.20;;
44822;SDS011;51097;51.984;5.650;2023-11-21T01:59:45;25.27;;;14.95;;
44822;SDS011;51097;51.984;5.650;2023-11-21T02:02:13;30.38;;;15.52;;
44822;SDS011;51097;51.984;5.650;2023-11-21T02:04:39;29.55;;;16.52;;
44822;SDS011;51097;51.984;5.650;2023-11-21T02:07:05;26.90;;;16.08;;
44822;SDS011;51097;51.984;5.650;2023-11-21T02:09:30;24.15;;;14.48;;
44822;SDS011;51097;51.984;5.650;2023-11-21T02:12:00;29.30;;;17.38;;
44822;SDS011;51097;51.984;5.650;2023-11-21T02:14:26;27.58;;;15.68;;
44822;SDS011;51097;51.984;5.650;2023-11-21T02:16:52;30.83;;;15.52;;
44822;SDS011;51097;51.984;5.650;2023-11-21T02:19:19;23.20;;;15.40;;
44822;SDS011;51097;51.984;5.650;2023-11-21T02:21:48;27.38;;;15.27;;
44822;SDS011;51097;51.984;5.650;2023-11-21T02:24:17;28.52;;;15.80;;
44822;SDS011;51097;51.984;5.650;2023-11-21T02:26:47;26.38;;;15.05;;
44822;SDS011;51097;51.984;5.650;2023-11-21T02:29:13;26.63;;;16.73;;
44822;SDS011;51097;51.984;5.650;2023-11-21T02:31:41;23.95;;;14.48;;
44822;SDS011;51097;51.984;5.650;2023-11-21T02:34:16;22.30;;;12.98;;
44822;SDS011;51097;51.984;5.650;2023-11-21T02:36:43;27.10;;;16.10;;
44822;SDS011;51097;51.984;5.650;2023-11-21T02:39:09;28.67;;;16.27;;
44822;SDS011;51097;51.984;5.650;2023-11-21T02:41:36;30.52;;;15.88;;
44822;SDS011;51097;51.984;5.650;2023-11-21T02:44:05;29.83;;;15.73;;
44822;SDS011;51097;51.984;5.650;2023-11-21T02:46:32;29.25;;;16.75;;
44822;SDS011;51097;51.984;5.650;2023-11-21T02:48:59;32.63;;;17.70;;
44822;SDS011;51097;51.984;5.650;2023-11-21T02:51:25;24.95;;;15.70;;
44822;SDS011;51097;51.984;5.650;2023-11-21T02:53:51;25.92;;;16.58;;
44822;SDS011;51097;51.984;5.650;2023-11-21T02:56:16;24.55;;;15.85;;
44822;SDS011;51097;51.984;5.650;2023-11-21T02:58:42;23.73;;;16.17;;
44822;SDS011;51097;51.984;5.650;2023-11-21T03:01:11;23.67;;;15.35;;
44822;SDS011;51097;51.984;5.650;2023-11-21T03:03:38;24.33;;;16.23;;
44822;SDS011;51097;51.984;5.650;2023-11-21T03:06:08;21.45;;;15.40;;
44822;SDS011;51097;51.984;5.650;2023-11-21T03:08:34;30.15;;;17.17;;
44822;SDS011;51097;51.984;5.650;2023-11-21T03:10:59;24.05;;;15.30;;
44822;SDS011;51097;51.984;5.650;2023-11-21T03:13:25;24.80;;;15.70;;
44822;SDS011;51097;51.984;5.650;2023-11-21T03:15:51;23.35;;;16.55;;
44822;SDS011;51097;51.984;5.650;2023-11-21T03:18:17;23.55;;;16.08;;
44822;SDS011;51097;51.984;5.650;2023-11-21T03:20:43;23.35;;;14.85;;
44822;SDS011;51097;51.984;5.650;2023-11-21T03:23:11;23.17;;;14.95;;
44822;SDS011;51097;51.984;5.650;2023-11-21T03:25:37;21.05;;;14.85;;
44822;SDS011;51097;51.984;5.650;2023-11-21T03:28:02;25.70;;;15.75;;
44822;SDS011;51097;51.984;5.650;2023-11-21T03:30:28;23.40;;;15.23;;
44822;SDS011;51097;51.984;5.650;2023-11-21T03:32:54;24.33;;;15.55;;
44822;SDS011;51097;51.984;5.650;2023-11-21T03:35:19;19.98;;;13.90;;
44822;SDS011;51097;51.984;5.650;2023-11-21T03:37:46;24.00;;;15.13;;
44822;SDS011;51097;51.984;5.650;2023-11-21T03:40:11;25.10;;;14.88;;
44822;SDS011;51097;51.984;5.650;2023-11-21T03:42:37;21.05;;;16.00;;
44822;SDS011;51097;51.984;5.650;2023-11-21T03:45:04;23.90;;;15.85;;
44822;SDS011;51097;51.984;5.650;2023-11-21T03:47:33;21.27;;;15.30;;
44822;SDS011;51097;51.984;5.650;2023-11-21T03:49:59;23.38;;;14.52;;
44822;SDS011;51097;51.984;5.650;2023-11-21T03:52:24;24.40;;;15.73;;
44822;SDS011;51097;51.984;5.650;2023-11-21T03:54:50;25.02;;;16.33;;
44822;SDS011;51097;51.984;5.650;2023-11-21T03:57:16;23.38;;;15.70;;
44822;SDS011;51097;51.984;5.650;2023-11-21T03:59:42;21.08;;;15.35;;
44822;SDS011;51097;51.984;5.650;2023-11-21T04:02:08;20.95;;;15.43;;
44822;SDS011;51097;51.984;5.650;2023-11-21T04:04:34;22.27;;;14.73;;
44822;SDS011;51097;51.984;5.650;2023-11-21T04:07:00;24.27;;;15.90;;
44822;SDS011;51097;51.984;5.650;2023-11-21T04:09:25;24.15;;;16.08;;
44822;SDS011;51097;51.984;5.650;2023-11-21T04:11:51;25.77;;;16.30;;
44822;SDS011;51097;51.984;5.650;2023-11-21T04:14:17;26.73;;;15.98;;
44822;SDS011;51097;51.984;5.650;2023-11-21T04:16:43;25.88;;;16.40;;
44822;SDS011;51097;51.984;5.650;2023-11-21T04:19:09;25.05;;;16.30;;
44822;SDS011;51097;51.984;5.650;2023-11-21T04:21:35;23.95;;;17.25;;
44822;SDS011;51097;51.984;5.650;2023-11-21T04:24:01;24.80;;;15.82;;
44822;SDS011;51097;51.984;5.650;2023-11-21T04:26:27;24.60;;;15.85;;
44822;SDS011;51097;51.984;5.650;2023-11-21T04:28:52;25.92;;;15.73;;
44822;SDS011;51097;51.984;5.650;2023-11-21T04:31:18;21.10;;;14.98;;
44822;SDS011;51097;51.984;5.650;2023-11-21T04:33:44;23.90;;;16.30;;
44822;SDS011;51097;51.984;5.650;2023-11-21T04:36:09;24.35;;;16.10;;
44822;SDS011;51097;51.984;5.650;2023-11-21T04:38:35;25.23;;;16.52;;
44822;SDS011;51097;51.984;5.650;2023-11-21T04:41:01;25.27;;;16.75;;
44822;SDS011;51097;51.984;5.650;2023-11-21T04:43:26;21.25;;;15.02;;
44822;SDS011;51097;51.984;5.650;2023-11-21T04:45:52;24.67;;;16.17;;
44822;SDS011;51097;51.984;5.650;2023-11-21T04:48:19;25.00;;;15.70;;
44822;SDS011;51097;51.984;5.650;2023-11-21T04:50:45;25.73;;;15.88;;
44822;SDS011;51097;51.984;5.650;2023-11-21T04:53:11;28.13;;;16.27;;
44822;SDS011;51097;51.984;5.650;2023-11-21T04:55:39;25.55;;;15.43;;
44822;SDS011;51097;51.984;5.650;2023-11-21T04:58:08;22.23;;;15.13;;
44822;SDS011;51097;51.984;5.650;2023-11-21T05:00:33;25.98;;;16.25;;
44822;SDS011;51097;51.984;5.650;2023-11-21T05:02:59;27.02;;;16.13;;
44822;SDS011;51097;51.984;5.650;2023-11-21T05:05:26;28.35;;;16.42;;
44822;SDS011;51097;51.984;5.650;2023-11-21T05:07:51;27.42;;;15.25;;
44822;SDS011;51097;51.984;5.650;2023-11-21T05:10:18;28.83;;;15.27;;
44822;SDS011;51097;51.984;5.650;2023-11-21T05:12:44;26.88;;;16.90;;
44822;SDS011;51097;51.984;5.650;2023-11-21T05:15:11;23.33;;;15.25;;
44822;SDS011;51097;51.984;5.650;2023-11-21T05:17:40;26.17;;;15.02;;
44822;SDS011;51097;51.984;5.650;2023-11-21T05:20:12;24.23;;;15.70;;
44822;SDS011;51097;51.984;5.650;2023-11-21T05:22:39;25.75;;;16.08;;
44822;SDS011;51097;51.984;5.650;2023-11-21T05:25:05;26.67;;;14.98;;
44822;SDS011;51097;51.984;5.650;2023-11-21T05:27:33;25.98;;;14.82;;
44822;SDS011;51097;51.984;5.650;2023-11-21T05:30:00;29.02;;;14.18;;
44822;SDS011;51097;51.984;5.650;2023-11-21T05:32:34;24.92;;;14.00;;
44822;SDS011;51097;51.984;5.650;2023-11-21T05:35:00;25.58;;;14.93;;
44822;SDS011;51097;51.984;5.650;2023-11-21T05:37:26;27.77;;;14.43;;
44822;SDS011;51097;51.984;5.650;2023-11-21T05:39:52;23.55;;;14.55;;
44822;SDS011;51097;51.984;5.650;2023-11-21T05:42:18;21.98;;;13.75;;
44822;SDS011;51097;51.984;5.650;2023-11-21T05:44:44;22.05;;;15.45;;
44822;SDS011;51097;51.984;5.650;2023-11-21T05:47:10;29.25;;;14.55;;
44822;SDS011;51097;51.984;5.650;2023-11-21T05:49:36;26.27;;;13.95;;
44822;SDS011;51097;51.984;5.650;2023-11-21T05:52:02;23.88;;;13.68;;
44822;SDS011;51097;51.984;5.650;2023-11-21T05:54:27;27.27;;;14.77;;
44822;SDS011;51097;51.984;5.650;2023-11-21T05:56:53;25.35;;;14.07;;
44822;SDS011;51097;51.984;5.650;2023-11-21T05:59:19;27.23;;;12.70;;
44822;SDS011;51097;51.984;5.650;2023-11-21T06:01:45;22.90;;;13.38;;
44822;SDS011;51097;51.984;5.650;2023-11-21T06:04:11;22.25;;;13.43;;
44822;SDS011;51097;51.984;5.650;2023-11-21T06:06:37;24.50;;;12.57;;
44822;SDS011;51097;51.984;5.650;2023-11-21T06:09:03;25.70;;;13.93;;
44822;SDS011;51097;51.984;5.650;2023-11-21T06:11:30;27.70;;;15.07;;
44822;SDS011;51097;51.984;5.650;2023-11-21T06:13:56;25.20;;;13.80;;
44822;SDS011;51097;51.984;5.650;2023-11-21T06:16:23;26.35;;;13.65;;
44822;SDS011;51097;51.984;5.650;2023-11-21T06:18:49;26.83;;;15.15;;
44822;SDS011;51097;51.984;5.650;2023-11-21T06:21:14;23.10;;;14.45;;
44822;SDS011;51097;51.984;5.650;2023-11-21T06:23:41;29.65;;;14.23;;
44822;SDS011;51097;51.984;5.650;2023-11-21T06:26:07;23.33;;;13.73;;
44822;SDS011;51097;51.984;5.650;2023-11-21T06:28:34;26.77;;;14.68;;
44822;SDS011;51097;51.984;5.650;2023-11-21T06:31:00;25.55;;;14.65;;
44822;SDS011;51097;51.984;5.650;2023-11-21T06:33:30;24.88;;;14.55;;
44822;SDS011;51097;51.984;5.650;2023-11-21T06:35:56;28.50;;;15.68;;
44822;SDS011;51097;51.984;5.650;2023-11-21T06:38:21;25.13;;;14.63;;
44822;SDS011;51097;51.984;5.650;2023-11-21T06:40:47;27.23;;;14.65;;
44822;SDS011;51097;51.984;5.650;2023-11-21T06:43:13;23.05;;;14.63;;
44822;SDS011;51097;51.984;5.650;2023-11-21T06:45:39;25.33;;;13.70;;
44822;SDS011;51097;51.984;5.650;2023-11-21T06:48:04;27.25;;;15.18;;
44822;SDS011;51097;51.984;5.650;2023-11-21T06:50:30;25.33;;;15.00;;
44822;SDS011;51097;51.984;5.650;2023-11-21T06:52:56;26.48;;;14.27;;
44822;SDS011;51097;51.984;5.650;2023-11-21T06:55:21;25.65;;;14.27;;
44822;SDS011;51097;51.984;5.650;2023-11-21T06:57:47;26.40;;;14.23;;
44822;SDS011;51097;51.984;5.650;2023-11-21T07:00:13;24.30;;;13.60;;
44822;SDS011;51097;51.984;5.650;2023-11-21T07:02:40;23.40;;;13.32;;
44822;SDS011;51097;51.984;5.650;2023-11-21T07:05:06;27.90;;;15.50;;
44822;SDS011;51097;51.984;5.650;2023-11-21T07:07:32;22.70;;;13.45;;
44822;SDS011;51097;51.984;5.650;2023-11-21T07:10:00;30.17;;;13.75;;
44822;SDS011;51097;51.984;5.650;2023-11-21T07:12:28;26.00;;;15.25;;
44822;SDS011;51097;51.984;5.650;2023-11-21T07:14:55;27.65;;;15.15;;
44822;SDS011;51097;51.984;5.650;2023-11-21T07:17:20;24.83;;;14.20;;
44822;SDS011;51097;51.984;5.650;2023-11-21T07:19:48;30.95;;;15.15;;
44822;SDS011;51097;51.984;5.650;2023-11-21T07:22:14;30.35;;;16.55;;
44822;SDS011;51097;51.984;5.650;2023-11-21T07:24:40;29.17;;;15.63;;
44822;SDS011;51097;51.984;5.650;2023-11-21T07:27:06;24.95;;;15.50;;
44822;SDS011;51097;51.984;5.650;2023-11-21T07:29:31;24.63;;;14.15;;
44822;SDS011;51097;51.984;5.650;2023-11-21T07:31:58;30.77;;;15.18;;
44822;SDS011;51097;51.984;5.650;2023-11-21T07:34:23;28.08;;;15.25;;
44822;SDS011;51097;51.984;5.650;2023-11-21T07:36:49;32.85;;;17.00;;
44822;SDS011;51097;51.984;5.650;2023-11-21T07:39:14;30.00;;;16.92;;
44822;SDS011;51097;51.984;5.650;2023-11-21T07:41:43;26.27;;;14.48;;
44822;SDS011;51097;51.984;5.650;2023-11-21T07:46:39;32.17;;;16.95;;
44822;SDS011;51097;51.984;5.650;2023-11-21T07:49:05;24.48;;;13.95;;
44822;SDS011;51097;51.984;5.650;2023-11-21T07:51:31;28.63;;;15.85;;
44822;SDS011;51097;51.984;5.650;2023-11-21T07:53:56;26.13;;;15.07;;
44822;SDS011;51097;51.984;5.650;2023-11-21T07:56:22;34.83;;;16.38;;
44822;SDS011;51097;51.984;5.650;2023-11-21T07:58:47;33.17;;;16.95;;
44822;SDS011;51097;51.984;5.650;2023-11-21T08:01:13;28.17;;;16.00;;
44822;SDS011;51097;51.984;5.650;2023-11-21T08:03:38;26.05;;;16.38;;
44822;SDS011;51097;51.984;5.650;2023-11-21T08:06:04;24.00;;;16.85;;
44822;SDS011;51097;51.984;5.650;2023-11-21T08:08:31;27.92;;;15.60;;
44822;SDS011;51097;51.984;5.650;2023-11-21T08:10:57;29.73;;;17.08;;
44822;SDS011;51097;51.984;5.650;2023-11-21T08:13:26;33.70;;;16.48;;
44822;SDS011;51097;51.984;5.650;2023-11-21T08:15:56;24.50;;;15.52;;
44822;SDS011;51097;51.984;5.650;2023-11-21T08:18:27;23.85;;;15.45;;
44822;SDS011;51097;51.984;5.650;2023-11-21T08:20:52;27.27;;;14.57;;
44822;SDS011;51097;51.984;5.650;2023-11-21T08:23:20;24.60;;;14.80;;
44822;SDS011;51097;51.984;5.650;2023-11-21T08:25:46;25.95;;;13.68;;
44822;SDS011;51097;51.984;5.650;2023-11-21T08:28:12;27.85;;;15.30;;
44822;SDS011;51097;51.984;5.650;2023-11-21T08:30:41;32.42;;;16.40;;
44822;SDS011;51097;51.984;5.650;2023-11-21T08:33:07;24.95;;;15.63;;
44822;SDS011;51097;51.984;5.650;2023-11-21T08:35:33;27.48;;;16.85;;
44822;SDS011;51097;51.984;5.650;2023-11-21T08:37:59;24.20;;;15.90;;
44822;SDS011;51097;51.984;5.650;2023-11-21T08:40:25;27.48;;;15.00;;
44822;SDS011;51097;51.984;5.650;2023-11-21T08:42:50;25.50;;;16.27;;
44822;SDS011;51097;51.984;5.650;2023-11-21T08:45:17;25.67;;;16.05;;
44822;SDS011;51097;51.984;5.650;2023-11-21T08:47:44;32.33;;;15.60;;
44822;SDS011;51097;51.984;5.650;2023-11-21T08:50:10;29.33;;;17.13;;
44822;SDS011;51097;51.984;5.650;2023-11-21T08:52:37;31.50;;;16.67;;
44822;SDS011;51097;51.984;5.650;2023-11-21T08:55:04;31.98;;;16.52;;
44822;SDS011;51097;51.984;5.650;2023-11-21T08:57:35;25.80;;;15.10;;
44822;SDS011;51097;51.984;5.650;2023-11-21T09:00:05;26.83;;;15.50;;
44822;SDS011;51097;51.984;5.650;2023-11-21T09:02:35;26.80;;;17.58;;
44822;SDS011;51097;51.984;5.650;2023-11-21T09:05:02;30.30;;;17.38;;
44822;SDS011;51097;51.984;5.650;2023-11-21T09:07:31;26.13;;;16.10;;
44822;SDS011;51097;51.984;5.650;2023-11-21T09:09:57;30.70;;;17.33;;
44822;SDS011;51097;51.984;5.650;2023-11-21T09:12:22;30.50;;;16.50;;
44822;SDS011;51097;51.984;5.650;2023-11-21T09:14:49;30.85;;;17.52;;
44822;SDS011;51097;51.984;5.650;2023-11-21T09:17:16;35.60;;;17.67;;
44822;SDS011;51097;51.984;5.650;2023-11-21T09:19:41;26.10;;;17.50;;
44822;SDS011;51097;51.984;5.650;2023-11-21T09:22:10;28.65;;;16.30;;
44822;SDS011;51097;51.984;5.650;2023-11-21T09:24:36;25.52;;;16.15;;
44822;SDS011;51097;51.984;5.650;2023-11-21T09:27:02;34.83;;;18.00;;
44822;SDS011;51097;51.984;5.650;2023-11-21T09:29:30;32.42;;;17.45;;
44822;SDS011;51097;51.984;5.650;2023-11-21T09:31:56;37.47;;;19.10;;
44822;SDS011;51097;51.984;5.650;2023-11-21T09:34:24;35.60;;;19.90;;
44822;SDS011;51097;51.984;5.650;2023-11-21T09:36:50;45.22;;;19.55;;
44822;SDS011;51097;51.984;5.650;2023-11-21T09:39:16;41.70;;;20.90;;
44822;SDS011;51097;51.984;5.650;2023-11-21T09:41:48;45.67;;;20.65;;
44822;SDS011;51097;51.984;5.650;2023-11-21T09:44:18;47.63;;;21.70;;
44822;SDS011;51097;51.984;5.650;2023-11-21T09:46:48;47.42;;;21.33;;
44822;SDS011;51097;51.984;5.650;2023-11-21T09:49:20;44.92;;;21.00;;
44822;SDS011;51097;51.984;5.650;2023-11-21T09:51:50;50.00;;;22.73;;
44822;SDS011;51097;51.984;5.650;2023-11-21T09:54:19;45.08;;;23.10;;
44822;SDS011;51097;51.984;5.650;2023-11-21T09:56:46;44.72;;;23.67;;
44822;SDS011;51097;51.984;5.650;2023-11-21T09:59:13;44.83;;;21.48;;
44822;SDS011;51097;51.984;5.650;2023-11-21T10:01:41;37.50;;;20.85;;
44822;SDS011;51097;51.984;5.650;2023-11-21T10:04:07;31.73;;;18.67;;
44822;SDS011;51097;51.984;5.650;2023-11-21T10:06:39;31.77;;;16.77;;
44822;SDS011;51097;51.984;5.650;2023-11-21T10:09:10;30.42;;;16.25;;
44822;SDS011;51097;51.984;5.650;2023-11-21T10:11:42;26.45;;;16.35;;
44822;SDS011;51097;51.984;5.650;2023-11-21T10:14:11;22.02;;;13.85;;
44822;SDS011;51097;51.984;5.650;2023-11-21T10:16:38;20.50;;;12.80;;
44822;SDS011;51097;51.984;5.650;2023-11-21T10:19:05;21.13;;;13.63;;
44822;SDS011;51097;51.984;5.650;2023-11-21T10:21:34;22.02;;;14.38;;
44822;SDS011;51097;51.984;5.650;2023-11-21T10:24:00;24.77;;;13.35;;
44822;SDS011;51097;51.984;5.650;2023-11-21T10:26:26;23.33;;;13.77;;
44822;SDS011;51097;51.984;5.650;2023-11-21T10:29:00;22.85;;;12.88;;
44822;SDS011;51097;51.984;5.650;2023-11-21T10:31:28;21.58;;;12.30;;
44822;SDS011;51097;51.984;5.650;2023-11-21T10:34:14;21.67;;;13.68;;
44822;SDS011;51097;51.984;5.650;2023-11-21T10:36:40;23.70;;;13.18;;
44822;SDS011;51097;51.984;5.650;2023-11-21T10:39:06;20.75;;;12.73;;
44822;SDS011;51097;51.984;5.650;2023-11-21T10:41:32;21.23;;;13.30;;
44822;SDS011;51097;51.984;5.650;2023-11-21T10:43:58;21.05;;;13.50;;
44822;SDS011;51097;51.984;5.650;2023-11-21T10:46:23;21.38;;;14.07;;
44822;SDS011;51097;51.984;5.650;2023-11-21T10:48:54;22.13;;;13.57;;
44822;SDS011;51097;51.984;5.650;2023-11-21T10:51:21;21.48;;;13.02;;
44822;SDS011;51097;51.984;5.650;2023-11-21T10:53:47;22.85;;;12.88;;
44822;SDS011;51097;51.984;5.650;2023-11-21T10:56:15;24.98;;;14.02;;
44822;SDS011;51097;51.984;5.650;2023-11-21T10:58:46;21.90;;;13.68;;
44822;SDS011;51097;51.984;5.650;2023-11-21T11:01:13;25.10;;;13.82;;
44822;SDS011;51097;51.984;5.650;2023-11-21T11:03:41;27.25;;;14.73;;
44822;SDS011;51097;51.984;5.650;2023-11-21T11:06:09;22.17;;;13.30;;
44822;SDS011;51097;51.984;5.650;2023-11-21T11:08:36;19.02;;;11.63;;
44822;SDS011;51097;51.984;5.650;2023-11-21T11:11:03;19.33;;;11.38;;
44822;SDS011;51097;51.984;5.650;2023-11-21T11:13:32;17.45;;;10.48;;
44822;SDS011;51097;51.984;5.650;2023-11-21T11:15:58;19.20;;;11.60;;
44822;SDS011;51097;51.984;5.650;2023-11-21T11:18:26;20.13;;;12.13;;
44822;SDS011;51097;51.984;5.650;2023-11-21T11:20:53;17.17;;;10.57;;
44822;SDS011;51097;51.984;5.650;2023-11-21T11:25:53;20.20;;;11.48;;
44822;SDS011;51097;51.984;5.650;2023-11-21T11:28:57;16.70;;;11.10;;
44822;SDS011;51097;51.984;5.650;2023-11-21T11:34:30;18.85;;;11.70;;
44822;SDS011;51097;51.984;5.650;2023-11-21T11:37:06;18.88;;;11.98;;
44822;SDS011;51097;51.984;5.650;2023-11-21T11:39:37;20.13;;;11.32;;
44822;SDS011;51097;51.984;5.650;2023-11-21T11:42:07;18.83;;;10.57;;
44822;SDS011;51097;51.984;5.650;2023-11-21T11:47:15;17.40;;;11.68;;
44822;SDS011;51097;51.984;5.650;2023-11-21T11:54:58;17.23;;;9.32;;
44822;SDS011;51097;51.984;5.650;2023-11-21T11:57:25;19.50;;;11.57;;
44822;SDS011;51097;51.984;5.650;2023-11-21T12:00:10;20.08;;;10.27;;
44822;SDS011;51097;51.984;5.650;2023-11-21T12:02:36;16.25;;;9.70;;
44822;SDS011;51097;51.984;5.650;2023-11-21T12:05:09;14.65;;;10.00;;
44822;SDS011;51097;51.984;5.650;2023-11-21T12:07:47;19.02;;;10.90;;
44822;SDS011;51097;51.984;5.650;2023-11-21T12:10:19;15.35;;;10.18;;
44822;SDS011;51097;51.984;5.650;2023-11-21T12:12:47;15.63;;;9.77;;
44822;SDS011;51097;51.984;5.650;2023-11-21T12:15:14;14.98;;;8.75;;
44822;SDS011;51097;51.984;5.650;2023-11-21T12:17:41;14.18;;;8.70;;
44822;SDS011;51097;51.984;5.650;2023-11-21T12:20:08;15.93;;;9.65;;
44822;SDS011;51097;51.984;5.650;2023-11-21T12:22:43;16.35;;;10.77;;
44822;SDS011;51097;51.984;5.650;2023-11-21T12:25:10;19.38;;;10.95;;
44822;SDS011;51097;51.984;5.650;2023-11-21T12:27:40;16.00;;;10.93;;
44822;SDS011;51097;51.984;5.650;2023-11-21T12:30:10;14.45;;;9.45;;
44822;SDS011;51097;51.984;5.650;2023-11-21T12:32:42;16.48;;;9.93;;
44822;SDS011;51097;51.984;5.650;2023-11-21T12:35:09;15.23;;;9.07;;
44822;SDS011;51097;51.984;5.650;2023-11-21T12:37:36;13.45;;;8.90;;
44822;SDS011;51097;51.984;5.650;2023-11-21T12:40:07;13.02;;;9.68;;
44822;SDS011;51097;51.984;5.650;2023-11-21T12:42:36;14.20;;;8.88;;
44822;SDS011;51097;51.984;5.650;2023-11-21T12:47:51;12.80;;;8.73;;
44822;SDS011;51097;51.984;5.650;2023-11-21T12:50:20;12.90;;;8.50;;
44822;SDS011;51097;51.984;5.650;2023-11-21T12:52:48;12.73;;;8.50;;
44822;SDS011;51097;51.984;5.650;2023-11-21T12:55:24;14.25;;;8.35;;
44822;SDS011;51097;51.984;5.650;2023-11-21T12:57:54;11.43;;;8.02;;
44822;SDS011;51097;51.984;5.650;2023-11-21T13:00:27;14.38;;;9.23;;
44822;SDS011;51097;51.984;5.650;2023-11-21T13:02:58;14.52;;;9.13;;
44822;SDS011;51097;51.984;5.650;2023-11-21T13:05:28;18.70;;;10.70;;
44822;SDS011;51097;51.984;5.650;2023-11-21T13:08:03;17.65;;;12.13;;
44822;SDS011;51097;51.984;5.650;2023-11-21T13:10:33;18.00;;;11.48;;
44822;SDS011;51097;51.984;5.650;2023-11-21T13:13:02;17.60;;;12.18;;
44822;SDS011;51097;51.984;5.650;2023-11-21T13:15:39;19.33;;;11.57;;
44822;SDS011;51097;51.984;5.650;2023-11-21T13:18:08;16.58;;;10.63;;
44822;SDS011;51097;51.984;5.650;2023-11-21T13:20:35;15.30;;;11.15;;
44822;SDS011;51097;51.984;5.650;2023-11-21T13:23:06;17.08;;;10.95;;
44822;SDS011;51097;51.984;5.650;2023-11-21T13:25:33;17.65;;;11.07;;
44822;SDS011;51097;51.984;5.650;2023-11-21T13:27:59;17.35;;;11.32;;
44822;SDS011;51097;51.984;5.650;2023-11-21T13:30:28;17.45;;;11.27;;
44822;SDS011;51097;51.984;5.650;2023-11-21T13:33:00;15.55;;;9.65;;
44822;SDS011;51097;51.984;5.650;2023-11-21T13:35:37;15.98;;;10.88;;
44822;SDS011;51097;51.984;5.650;2023-11-21T13:40:36;16.00;;;9.95;;
44822;SDS011;51097;51.984;5.650;2023-11-21T13:43:08;16.10;;;10.43;;
44822;SDS011;51097;51.984;5.650;2023-11-21T13:45:41;17.20;;;10.40;;
44822;SDS011;51097;51.984;5.650;2023-11-21T13:48:08;16.27;;;10.63;;
44822;SDS011;51097;51.984;5.650;2023-11-21T13:50:41;17.15;;;10.68;;
44822;SDS011;51097;51.984;5.650;2023-11-21T13:53:23;15.57;;;9.57;;
44822;SDS011;51097;51.984;5.650;2023-11-21T13:55:49;13.93;;;9.73;;
44822;SDS011;51097;51.984;5.650;2023-11-21T13:58:16;16.38;;;10.52;;
44822;SDS011;51097;51.984;5.650;2023-11-21T14:00:45;14.20;;;10.00;;
44822;SDS011;51097;51.984;5.650;2023-11-21T14:03:11;17.02;;;10.57;;
44822;SDS011;51097;51.984;5.650;2023-11-21T14:05:46;19.38;;;11.32;;
44822;SDS011;51097;51.984;5.650;2023-11-21T14:08:16;15.40;;;9.85;;
44822;SDS011;51097;51.984;5.650;2023-11-21T14:10:46;14.45;;;9.38;;
44822;SDS011;51097;51.984;5.650;2023-11-21T14:13:22;14.05;;;9.40;;
44822;SDS011;51097;51.984;5.650;2023-11-21T14:15:49;12.77;;;8.18;;
44822;SDS011;51097;51.984;5.650;2023-11-21T14:18:26;11.25;;;6.70;;
44822;SDS011;51097;51.984;5.650;2023-11-21T14:21:06;9.07;;;6.22;;
44822;SDS011;51097;51.984;5.650;2023-11-21T14:23:33;9.15;;;6.45;;
44822;SDS011;51097;51.984;5.650;2023-11-21T14:26:01;11.50;;;5.72;;
44822;SDS011;51097;51.984;5.650;2023-11-21T14:28:26;11.55;;;6.15;;
44822;SDS011;51097;51.984;5.650;2023-11-21T14:30:52;12.05;;;7.68;;
44822;SDS011;51097;51.984;5.650;2023-11-21T14:33:18;10.90;;;7.65;;
44822;SDS011;51097;51.984;5.650;2023-11-21T14:35:43;11.52;;;7.18;;
44822;SDS011;51097;51.984;5.650;2023-11-21T14:38:09;15.07;;;8.40;;
44822;SDS011;51097;51.984;5.650;2023-11-21T14:40:35;13.75;;;8.13;;
44822;SDS011;51097;51.984;5.650;2023-11-21T14:43:02;14.80;;;7.95;;
44822;SDS011;51097;51.984;5.650;2023-11-21T14:45:31;14.37;;;8.80;;